createdAt,value
2019-06-04T00:00:42.519Z,21.40
2019-06-04T00:03:12.829Z,21.40
2019-06-04T00:05:43.040Z,21.40
2019-06-04T00:08:13.190Z,21.30
2019-06-04T00:10:43.348Z,21.30
2019-06-04T00:13:15.184Z,21.20
2019-06-04T00:15:45.322Z,21.20
2019-06-04T00:18:15.460Z,21.20
2019-06-04T00:20:45.688Z,21.20
2019-06-04T00:23:15.793Z,21.10
2019-06-04T00:25:45.977Z,21.10
2019-06-04T00:28:16.417Z,21.20
2019-06-04T00:30:47.325Z,21.20
2019-06-04T00:33:18.588Z,21.20
2019-06-04T00:35:48.770Z,21.20
2019-06-04T00:38:19.076Z,21.20
2019-06-04T00:40:49.244Z,21.20
2019-06-04T00:43:19.456Z,21.30
2019-06-04T00:45:49.578Z,21.20
2019-06-04T00:48:19.836Z,21.30
2019-06-04T00:50:50.009Z,21.30
2019-06-04T00:53:20.387Z,21.30
2019-06-04T00:55:52.576Z,21.40
2019-06-04T00:58:22.580Z,21.30
2019-06-04T01:00:52.685Z,21.20
2019-06-04T01:03:23.129Z,21.10
2019-06-04T01:05:53.262Z,21.00
2019-06-04T01:08:24.071Z,21.00
2019-06-04T01:10:54.614Z,21.00
2019-06-04T01:13:24.825Z,21.00
2019-06-04T01:15:55.031Z,20.80
2019-06-04T01:18:25.462Z,20.70
2019-06-04T01:20:55.608Z,20.70
2019-06-04T01:23:25.834Z,20.70
2019-06-04T01:25:55.972Z,20.70
2019-06-04T01:28:26.186Z,20.60
2019-06-04T01:30:56.798Z,20.60
2019-06-04T01:33:39.423Z,20.50
2019-06-04T01:36:00.318Z,20.50
2019-06-04T01:38:30.680Z,20.50
2019-06-04T01:41:02.860Z,20.60
2019-06-04T01:43:33.227Z,20.60
2019-06-04T01:46:03.612Z,20.80
2019-06-04T01:48:33.953Z,20.90
2019-06-04T01:51:04.378Z,20.90
2019-06-04T01:53:34.596Z,20.90
2019-06-04T01:56:05.131Z,21.10
2019-06-04T01:58:35.309Z,21.10
2019-06-04T02:01:05.530Z,21.20
2019-06-04T02:03:36.846Z,21.20
2019-06-04T02:06:07.778Z,21.20
2019-06-04T02:08:38.189Z,21.20
2019-06-04T02:11:08.469Z,21.20
2019-06-04T02:13:38.706Z,21.20
2019-06-04T02:16:19.545Z,21.20
2019-06-04T02:18:40.755Z,21.20
2019-06-04T02:21:12.061Z,21.20
2019-06-04T02:23:42.378Z,21.10
2019-06-04T02:26:12.576Z,21.10
2019-06-04T02:28:42.748Z,21.00
2019-06-04T02:31:13.018Z,21.00
2019-06-04T02:33:44.186Z,20.90
2019-06-04T02:36:15.676Z,20.90
2019-06-04T02:38:47.028Z,20.90
2019-06-04T02:41:18.554Z,20.80
2019-06-04T02:43:48.892Z,20.70
2019-06-04T02:46:20.357Z,20.70
2019-06-04T02:48:51.812Z,20.70
2019-06-04T02:51:22.786Z,20.70
2019-06-04T02:53:55.963Z,20.70
2019-06-04T02:56:27.731Z,20.70
2019-06-04T02:58:59.800Z,20.60
2019-06-04T03:01:30.108Z,20.60
2019-06-04T03:04:00.553Z,20.50
2019-06-04T03:06:31.418Z,20.50
2019-06-04T03:09:01.607Z,20.60
2019-06-04T03:11:32.888Z,20.60
2019-06-04T03:14:03.149Z,20.60
2019-06-04T03:16:33.342Z,20.60
2019-06-04T03:19:03.452Z,20.60
2019-06-04T03:21:33.697Z,20.70
2019-06-04T03:24:03.925Z,20.80
2019-06-04T03:26:34.031Z,20.70
2019-06-04T03:29:04.243Z,20.70
2019-06-04T03:31:34.509Z,20.70
2019-06-04T03:34:04.795Z,20.70
2019-06-04T03:36:35.196Z,20.90
2019-06-04T03:39:07.134Z,20.80
2019-06-04T03:41:37.308Z,20.70
2019-06-04T03:44:07.482Z,20.70
2019-06-04T03:46:37.636Z,20.70
2019-06-04T03:49:07.758Z,20.80
2019-06-04T03:51:37.858Z,20.90
2019-06-04T03:54:08.027Z,20.90
2019-06-04T03:56:38.214Z,20.80
2019-06-04T03:59:08.386Z,20.80
2019-06-04T04:01:38.467Z,20.90
2019-06-04T04:04:09.058Z,20.80
2019-06-04T04:06:39.541Z,20.70
2019-06-04T04:09:09.692Z,20.70
2019-06-04T04:11:39.835Z,20.80
2019-06-04T04:14:10.030Z,20.70
2019-06-04T04:16:40.195Z,20.70
2019-06-04T04:19:10.636Z,20.50
2019-06-04T04:21:40.819Z,20.60
2019-06-04T04:24:11.037Z,20.50
2019-06-04T04:26:41.230Z,20.60
2019-06-04T04:29:11.390Z,20.70
2019-06-04T04:31:41.517Z,20.70
2019-06-04T04:34:25.719Z,20.90
2019-06-04T04:36:47.543Z,21.00
2019-06-04T04:39:17.769Z,20.90
2019-06-04T04:41:48.041Z,21.00
2019-06-04T04:44:18.468Z,21.00
2019-06-04T04:46:49.207Z,21.00
2019-06-04T04:49:20.425Z,21.00
2019-06-04T04:51:51.250Z,21.00
2019-06-04T04:54:21.887Z,21.20
2019-06-04T04:56:52.017Z,21.30
2019-06-04T04:59:22.221Z,21.50
2019-06-04T05:01:52.650Z,21.40
2019-06-04T05:04:23.753Z,21.70
2019-06-04T05:06:54.686Z,21.80
2019-06-04T05:09:26.350Z,21.90
2019-06-04T05:11:58.368Z,21.90
2019-06-04T05:14:31.231Z,21.90
2019-06-04T05:17:03.973Z,21.90
2019-06-04T05:19:34.704Z,21.90
2019-06-04T05:22:05.198Z,21.90
2019-06-04T05:24:35.307Z,21.80
2019-06-04T05:27:05.489Z,22.00
2019-06-04T05:29:35.723Z,21.90
2019-06-04T05:32:05.915Z,22.10
2019-06-04T05:34:36.129Z,22.20
2019-06-04T05:37:06.402Z,22.20
2019-06-04T05:39:36.570Z,22.40
2019-06-04T05:42:06.701Z,22.80
2019-06-04T05:44:36.870Z,23.10
2019-06-04T05:47:07.815Z,23.40
2019-06-04T05:49:38.044Z,23.40
2019-06-04T05:52:08.213Z,23.60
2019-06-04T05:54:38.424Z,23.70
2019-06-04T05:57:08.551Z,23.90
2019-06-04T05:59:39.206Z,24.10
2019-06-04T06:02:10.066Z,24.30
2019-06-04T06:04:41.426Z,24.20
2019-06-04T06:07:11.674Z,24.50
2019-06-04T06:09:41.841Z,24.70
2019-06-04T06:12:11.988Z,25.10
2019-06-04T06:14:42.563Z,25.40
2019-06-04T06:17:13.186Z,25.40
2019-06-04T06:19:43.328Z,25.80
2019-06-04T06:22:13.491Z,26.00
2019-06-04T06:24:43.710Z,26.00
2019-06-04T06:27:13.888Z,25.90
2019-06-04T06:29:44.149Z,26.00
2019-06-04T06:32:14.524Z,25.70
2019-06-04T06:34:44.700Z,25.90
2019-06-04T06:37:14.905Z,26.40
2019-06-04T06:39:45.063Z,26.80
2019-06-04T06:42:15.306Z,27.10
2019-06-04T06:44:45.505Z,26.80
2019-06-04T06:47:15.656Z,27.00
2019-06-04T06:49:45.865Z,26.90
2019-06-04T06:52:16.096Z,26.90
2019-06-04T06:54:46.515Z,27.10
2019-06-04T06:57:16.667Z,26.90
2019-06-04T06:59:46.847Z,27.00
2019-06-04T07:02:24.453Z,27.20
2019-06-04T07:04:50.994Z,27.60
2019-06-04T07:07:21.274Z,27.70
2019-06-04T07:09:53.636Z,27.90
2019-06-04T07:12:25.282Z,28.40
2019-06-04T07:14:56.975Z,28.50
2019-06-04T07:17:27.098Z,28.90
2019-06-04T07:19:57.261Z,29.00
2019-06-04T07:22:27.388Z,29.30
2019-06-04T07:24:57.794Z,29.30
2019-06-04T07:27:28.012Z,29.30
2019-06-04T07:29:58.178Z,29.10
2019-06-04T07:32:28.329Z,29.20
2019-06-04T07:34:58.497Z,29.40
2019-06-04T07:37:28.709Z,28.80
2019-06-04T07:40:05.971Z,28.30
2019-06-04T07:42:32.853Z,28.40
2019-06-04T07:45:03.155Z,28.80
2019-06-04T07:47:35.219Z,29.20
2019-06-04T07:50:05.936Z,29.10
2019-06-04T07:52:37.647Z,29.40
2019-06-04T07:55:08.473Z,29.50
2019-06-04T07:57:39.405Z,29.60
2019-06-04T08:00:11.079Z,29.30
2019-06-04T08:02:42.511Z,29.30
2019-06-04T08:05:12.906Z,29.70
2019-06-04T08:07:43.119Z,30.00
2019-06-04T08:10:13.498Z,30.40
2019-06-04T08:12:43.668Z,31.40
2019-06-04T08:15:14.282Z,31.40
2019-06-04T08:17:44.719Z,31.70
2019-06-04T08:20:16.188Z,31.70
2019-06-04T08:22:46.259Z,31.90
2019-06-04T08:25:16.345Z,32.00
2019-06-04T08:27:46.473Z,32.10
2019-06-04T08:30:16.807Z,31.70
2019-06-04T08:32:47.024Z,32.50
2019-06-04T08:35:17.202Z,32.80
2019-06-04T08:37:49.038Z,32.40
2019-06-04T08:40:19.141Z,32.90
2019-06-04T08:42:53.433Z,32.60
2019-06-04T08:45:21.688Z,32.80
2019-06-04T08:47:51.969Z,33.10
2019-06-04T08:50:22.614Z,33.40
2019-06-04T08:52:52.906Z,34.10
2019-06-04T08:55:38.520Z,34.10
2019-06-04T08:58:10.647Z,34.30
2019-06-04T09:00:44.584Z,34.70
2019-06-04T09:03:14.953Z,35.20
2019-06-04T09:05:46.224Z,34.80
2019-06-04T09:08:16.701Z,35.10
2019-06-04T09:10:48.421Z,34.60
2019-06-04T09:13:19.735Z,33.90
2019-06-04T09:15:55.355Z,33.50
2019-06-04T09:18:22.637Z,33.50
2019-06-04T09:20:53.238Z,33.70
2019-06-04T09:23:23.416Z,33.90
2019-06-04T09:25:53.562Z,34.60
2019-06-04T09:28:23.868Z,34.40
2019-06-04T09:31:02.413Z,33.90
2019-06-04T09:33:26.027Z,34.30
2019-06-04T09:35:56.205Z,34.80
2019-06-04T09:38:26.327Z,34.80
2019-06-04T09:40:56.467Z,34.80
2019-06-04T09:43:27.467Z,34.60
2019-06-04T09:45:58.251Z,35.00
2019-06-04T09:48:28.399Z,35.70
2019-06-04T09:50:59.828Z,36.40
2019-06-04T09:53:30.481Z,36.30
2019-06-04T09:56:00.612Z,36.50
2019-06-04T09:58:31.438Z,36.10
2019-06-04T10:01:06.135Z,36.10
2019-06-04T10:03:34.625Z,35.80
2019-06-04T10:06:05.037Z,35.60
2019-06-04T10:08:35.639Z,35.70
2019-06-04T10:11:05.769Z,36.10
2019-06-04T10:13:35.873Z,35.90
2019-06-04T10:16:06.198Z,36.00
2019-06-04T10:18:36.371Z,35.40
2019-06-04T10:21:06.500Z,35.40
2019-06-04T10:23:36.701Z,35.30
2019-06-04T10:26:24.087Z,35.80
2019-06-04T10:28:38.753Z,35.50
2019-06-04T10:31:08.938Z,36.20
2019-06-04T10:33:39.140Z,36.60
2019-06-04T10:36:09.310Z,36.90
2019-06-04T10:38:40.383Z,36.20
2019-06-04T10:41:10.565Z,35.80
2019-06-04T10:43:40.687Z,35.90
2019-06-04T10:46:10.765Z,36.50
2019-06-04T10:48:40.901Z,36.80
2019-06-04T10:51:14.225Z,36.40
2019-06-04T10:53:43.016Z,36.10
2019-06-04T10:56:13.161Z,36.50
2019-06-04T10:58:44.355Z,36.60
2019-06-04T11:01:14.610Z,37.40
2019-06-04T11:03:44.804Z,37.90
2019-06-04T11:06:15.136Z,37.70
2019-06-04T11:08:51.999Z,37.00
2019-06-04T11:11:17.154Z,36.80
2019-06-04T11:13:48.640Z,37.00
2019-06-04T11:16:18.945Z,37.30
2019-06-04T11:18:50.245Z,37.20
2019-06-04T11:21:37.784Z,37.30
2019-06-04T11:23:54.811Z,37.70
2019-06-04T11:26:25.153Z,37.70
2019-06-04T11:28:55.517Z,38.50
2019-06-04T11:31:25.615Z,39.20
2019-06-04T11:34:18.522Z,40.20
2019-06-04T11:36:28.569Z,40.00
2019-06-04T11:39:13.151Z,39.60
2019-06-04T11:41:30.610Z,40.20
2019-06-04T11:44:00.995Z,40.60
2019-06-04T11:46:31.276Z,40.30
2019-06-04T11:49:01.908Z,39.70
2019-06-04T11:51:32.546Z,39.40
2019-06-04T11:54:03.493Z,39.50
2019-06-04T11:56:35.231Z,39.40
2019-06-04T11:59:06.710Z,39.20
2019-06-04T12:01:36.990Z,40.00
2019-06-04T12:04:07.157Z,39.80
2019-06-04T12:06:37.276Z,39.90
2019-06-04T12:09:29.085Z,40.30
2019-06-04T12:11:40.530Z,39.90
2019-06-04T12:14:10.730Z,39.50
2019-06-04T12:16:44.756Z,39.90
2019-06-04T12:19:12.668Z,40.00
2019-06-04T12:21:42.917Z,39.90
2019-06-04T12:24:13.043Z,38.20
2019-06-04T12:26:43.561Z,37.90
2019-06-04T12:29:13.671Z,37.00
2019-06-04T12:31:43.866Z,37.50
2019-06-04T12:34:15.187Z,38.40
2019-06-04T12:36:45.459Z,39.20
2019-06-04T12:39:15.799Z,40.10
2019-06-04T12:41:46.036Z,40.20
2019-06-04T12:44:16.593Z,39.90
2019-06-04T12:46:46.720Z,40.30
2019-06-04T12:49:17.023Z,40.00
2019-06-04T12:51:47.098Z,39.60
2019-06-04T12:54:18.928Z,40.50
2019-06-04T12:56:50.251Z,39.50
2019-06-04T12:59:21.323Z,39.20
2019-06-04T13:01:52.704Z,39.10
2019-06-04T13:04:25.013Z,38.40
2019-06-04T13:06:55.448Z,37.60
2019-06-04T13:09:25.688Z,36.40
2019-06-04T13:12:02.343Z,35.40
2019-06-04T13:14:30.598Z,35.70
2019-06-04T13:17:00.752Z,36.30
2019-06-04T13:19:31.237Z,35.80
2019-06-04T13:22:02.803Z,35.30
2019-06-04T13:24:33.477Z,35.10
2019-06-04T13:27:05.961Z,36.10
2019-06-04T13:29:45.091Z,36.10
2019-06-04T13:32:08.616Z,36.00
2019-06-04T13:34:38.785Z,36.70
2019-06-04T13:37:10.819Z,36.10
2019-06-04T13:39:41.829Z,36.50
2019-06-04T13:42:12.115Z,37.00
2019-06-04T13:44:42.355Z,36.10
2019-06-04T13:47:12.565Z,35.10
2019-06-04T13:49:42.717Z,34.20
2019-06-04T13:52:16.428Z,33.90
2019-06-04T13:54:44.644Z,34.40
2019-06-04T13:57:14.895Z,35.60
2019-06-04T13:59:46.258Z,36.90
2019-06-04T14:02:16.570Z,37.60
2019-06-04T14:04:47.141Z,38.70
2019-06-04T14:07:17.306Z,39.00
2019-06-04T14:09:47.368Z,38.70
2019-06-04T14:12:17.490Z,38.20
2019-06-04T14:14:47.669Z,37.90
2019-06-04T14:17:17.872Z,36.90
2019-06-04T14:19:49.935Z,36.10
2019-06-04T14:22:19.772Z,35.70
2019-06-04T14:25:03.208Z,35.20
2019-06-04T14:27:33.394Z,35.00
2019-06-04T14:30:05.181Z,34.90
2019-06-04T14:32:36.553Z,34.30
2019-06-04T14:35:07.442Z,34.20
2019-06-04T14:37:37.788Z,34.20
2019-06-04T14:40:24.608Z,34.10
2019-06-04T14:42:40.454Z,34.00
2019-06-04T14:45:11.653Z,33.80
2019-06-04T14:47:41.738Z,33.80
2019-06-04T14:50:14.968Z,33.90
2019-06-04T14:52:44.340Z,33.90
2019-06-04T14:55:16.858Z,33.50
2019-06-04T14:57:47.751Z,33.50
2019-06-04T15:00:18.620Z,33.50
2019-06-04T15:02:48.919Z,33.60
2019-06-04T15:05:19.894Z,33.40
2019-06-04T15:08:01.883Z,33.20
2019-06-04T15:10:22.519Z,33.30
2019-06-04T15:12:52.912Z,33.00
2019-06-04T15:15:23.090Z,33.10
2019-06-04T15:17:57.385Z,32.90
2019-06-04T15:20:25.451Z,32.60
2019-06-04T15:22:55.591Z,32.30
2019-06-04T15:25:27.856Z,32.20
2019-06-04T15:27:59.496Z,32.10
2019-06-04T15:30:30.568Z,32.10
2019-06-04T15:33:01.047Z,32.20
2019-06-04T15:35:31.438Z,32.30
2019-06-04T15:38:01.659Z,32.30
2019-06-04T15:40:31.889Z,32.30
2019-06-04T15:43:02.360Z,32.20
2019-06-04T15:45:35.357Z,32.20
2019-06-04T15:48:06.468Z,32.10
2019-06-04T15:50:37.502Z,31.90
2019-06-04T15:53:08.248Z,31.90
2019-06-04T15:55:38.471Z,31.80
2019-06-04T15:58:08.926Z,31.90
2019-06-04T16:00:39.078Z,31.80
2019-06-04T16:03:09.276Z,31.90
2019-06-04T16:05:39.438Z,32.00
2019-06-04T16:08:09.558Z,32.10
2019-06-04T16:10:39.891Z,31.90
2019-06-04T16:13:10.110Z,31.90
2019-06-04T16:15:40.327Z,32.00
2019-06-04T16:18:10.767Z,31.90
2019-06-04T16:20:41.488Z,31.80
2019-06-04T16:23:15.739Z,31.90
2019-06-04T16:25:48.449Z,31.90
2019-06-04T16:28:16.242Z,31.80
2019-06-04T16:30:46.926Z,31.80
2019-06-04T16:33:18.699Z,31.70
2019-06-04T16:35:48.908Z,31.70
2019-06-04T16:38:25.768Z,31.70
2019-06-04T16:40:51.236Z,31.60
2019-06-04T16:43:21.554Z,31.60
2019-06-04T16:45:51.703Z,31.50
2019-06-04T16:48:23.113Z,31.40
2019-06-04T16:50:54.313Z,31.40
2019-06-04T16:53:25.348Z,31.40
2019-06-04T16:55:55.640Z,31.30
2019-06-04T16:58:26.116Z,31.30
2019-06-04T17:00:56.436Z,31.20
2019-06-04T17:03:30.257Z,31.10
2019-06-04T17:05:58.478Z,31.10
2019-06-04T17:08:30.075Z,31.10
2019-06-04T17:11:00.618Z,31.00
2019-06-04T17:13:32.349Z,31.00
2019-06-04T17:16:02.661Z,30.90
2019-06-04T17:18:33.012Z,30.90
2019-06-04T17:21:03.353Z,30.80
2019-06-04T17:23:33.529Z,30.70
2019-06-04T17:26:06.811Z,30.60
2019-06-04T17:28:35.770Z,30.60
2019-06-04T17:31:05.934Z,30.60
2019-06-04T17:33:36.121Z,30.60
2019-06-04T17:36:06.296Z,30.60
2019-06-04T17:38:36.842Z,30.50
2019-06-04T17:41:06.997Z,30.40
2019-06-04T17:43:37.196Z,30.20
2019-06-04T17:46:07.463Z,30.20
2019-06-04T17:48:37.907Z,30.10
2019-06-04T17:51:08.146Z,30.10
2019-06-04T17:53:38.354Z,30.10
2019-06-04T17:56:08.793Z,30.10
2019-06-04T17:58:38.992Z,30.10
2019-06-04T18:01:09.212Z,30.10
2019-06-04T18:03:39.681Z,30.00
2019-06-04T18:06:09.915Z,29.90
2019-06-04T18:08:40.127Z,29.80
2019-06-04T18:11:10.274Z,29.70
2019-06-04T18:13:40.622Z,29.70
2019-06-04T18:16:10.930Z,29.60
2019-06-04T18:18:41.499Z,29.40
2019-06-04T18:21:11.862Z,29.40
2019-06-04T18:23:42.165Z,29.30
2019-06-04T18:26:12.560Z,29.20
2019-06-04T18:28:42.782Z,29.20
2019-06-04T18:31:13.097Z,29.20
2019-06-04T18:33:47.912Z,29.20
2019-06-04T18:36:15.464Z,29.10
2019-06-04T18:38:45.651Z,29.00
2019-06-04T18:41:15.963Z,29.00
2019-06-04T18:43:51.961Z,28.90
2019-06-04T18:46:19.712Z,28.90
2019-06-04T18:48:50.275Z,28.80
2019-06-04T18:51:20.810Z,28.70
2019-06-04T18:53:51.616Z,28.60
2019-06-04T18:56:22.237Z,28.50
2019-06-04T18:58:54.441Z,28.30
2019-06-04T19:01:28.176Z,28.20
2019-06-04T19:03:58.915Z,28.10
2019-06-04T19:06:30.911Z,28.00
2019-06-04T19:09:01.554Z,27.90
2019-06-04T19:11:33.066Z,27.90
2019-06-04T19:14:05.377Z,27.90
2019-06-04T19:16:37.274Z,27.80
2019-06-04T19:19:27.428Z,27.70
2019-06-04T19:21:46.433Z,27.70
2019-06-04T19:24:14.214Z,27.60
2019-06-04T19:26:45.350Z,27.60
2019-06-04T19:29:15.858Z,27.50
2019-06-04T19:31:46.163Z,27.50
2019-06-04T19:34:16.615Z,27.40
2019-06-04T19:36:46.777Z,27.40
2019-06-04T19:39:16.929Z,27.20
2019-06-04T19:41:47.660Z,27.20
2019-06-04T19:44:21.805Z,27.10
2019-06-04T19:46:49.711Z,27.00
2019-06-04T19:49:19.874Z,26.90
2019-06-04T19:51:53.985Z,26.80
2019-06-04T19:54:34.650Z,26.70
2019-06-04T19:57:05.287Z,26.70
2019-06-04T19:59:37.187Z,26.70
2019-06-04T20:02:07.899Z,26.60
2019-06-04T20:04:41.826Z,26.50
2019-06-04T20:07:12.273Z,26.50
2019-06-04T20:09:42.602Z,26.40
2019-06-04T20:12:13.042Z,26.30
2019-06-04T20:14:46.623Z,26.30
2019-06-04T20:17:15.543Z,26.10
2019-06-04T20:19:45.824Z,26.10
2019-06-04T20:22:21.854Z,26.10
2019-06-04T20:24:52.281Z,26.00
2019-06-04T20:27:22.693Z,25.90
2019-06-04T20:29:53.205Z,25.90
2019-06-04T20:32:23.761Z,25.90
2019-06-04T20:34:53.999Z,25.80
2019-06-04T20:37:24.305Z,25.80
2019-06-04T20:39:54.771Z,25.80
2019-06-04T20:42:25.010Z,25.80
2019-06-04T20:45:11.457Z,25.80
2019-06-04T20:47:27.292Z,25.80
2019-06-04T20:49:58.782Z,25.70
2019-06-04T20:52:28.900Z,25.70
2019-06-04T20:54:59.076Z,25.70
2019-06-04T20:57:29.291Z,25.70
2019-06-04T21:00:02.450Z,25.60
2019-06-04T21:02:32.461Z,25.60
2019-06-04T21:05:02.781Z,25.50
2019-06-04T21:07:33.741Z,25.50
2019-06-04T21:10:04.610Z,25.50
2019-06-04T21:12:34.754Z,25.50
2019-06-04T21:15:23.723Z,25.40
2019-06-04T21:17:37.968Z,25.40
2019-06-04T21:20:09.677Z,25.40
2019-06-04T21:22:39.784Z,25.30
2019-06-04T21:25:10.180Z,25.30
2019-06-04T21:27:40.340Z,25.30
2019-06-04T21:30:11.062Z,25.20
2019-06-04T21:32:41.161Z,25.20
2019-06-04T21:35:11.787Z,25.10
2019-06-04T21:37:42.052Z,25.00
2019-06-04T21:40:12.927Z,25.00
2019-06-04T21:42:43.024Z,25.00
2019-06-04T21:45:13.351Z,24.90
2019-06-04T21:47:43.454Z,24.80
2019-06-04T21:50:13.949Z,24.70
2019-06-04T21:52:44.172Z,24.70
2019-06-04T21:55:14.722Z,24.70
2019-06-04T21:57:46.416Z,24.60
2019-06-04T22:00:19.524Z,24.60
2019-06-04T22:02:53.868Z,24.50
2019-06-04T22:05:24.044Z,24.40
2019-06-04T22:07:54.170Z,24.40
2019-06-04T22:10:25.777Z,24.30
2019-06-04T22:12:56.460Z,24.20
2019-06-04T22:15:26.990Z,24.20
2019-06-04T22:17:57.209Z,24.10
2019-06-04T22:20:27.521Z,24.10
2019-06-04T22:23:01.834Z,24.00
2019-06-04T22:25:38.073Z,24.00
2019-06-04T22:28:17.176Z,23.90
2019-06-04T22:30:48.241Z,23.90
2019-06-04T22:33:21.553Z,23.90
2019-06-04T22:35:52.968Z,23.80
2019-06-04T22:38:23.337Z,23.80
2019-06-04T22:40:54.434Z,23.80
2019-06-04T22:43:25.453Z,23.80
2019-06-04T22:45:55.829Z,23.70
2019-06-04T22:48:26.375Z,23.70
2019-06-04T22:50:56.745Z,23.70
2019-06-04T22:53:27.029Z,23.60
2019-06-04T22:55:57.238Z,23.50
2019-06-04T22:58:27.793Z,23.50
2019-06-04T23:00:58.119Z,23.50
2019-06-04T23:03:28.866Z,23.50
2019-06-04T23:06:00.394Z,23.40
2019-06-04T23:08:30.859Z,23.30
2019-06-04T23:11:02.728Z,23.30
2019-06-04T23:13:33.549Z,23.10
2019-06-04T23:16:03.857Z,23.10
2019-06-04T23:18:39.417Z,23.00
2019-06-04T23:21:11.871Z,23.00
2019-06-04T23:23:42.435Z,23.10
2019-06-04T23:26:15.752Z,23.00
2019-06-04T23:28:50.228Z,23.00
2019-06-04T23:31:21.813Z,23.00
2019-06-04T23:33:56.576Z,23.10
2019-06-04T23:36:33.115Z,23.00
2019-06-04T23:39:05.707Z,22.90
2019-06-04T23:41:36.805Z,22.90
2019-06-04T23:44:08.395Z,22.90
2019-06-04T23:46:54.982Z,22.80
2019-06-04T23:49:14.692Z,22.70
2019-06-04T23:51:46.350Z,22.70
2019-06-04T23:54:16.563Z,22.70
2019-06-04T23:56:46.804Z,22.60
2019-06-04T23:59:17.517Z,22.50
